createdAt,value
2023-04-02T00:07:33.946Z,80.95
2023-04-02T00:17:38.181Z,81.06
2023-04-02T00:27:40.985Z,82.41
2023-04-02T00:37:44.633Z,82.80
2023-04-02T00:47:53.093Z,81.69
2023-04-02T00:58:39.800Z,84.62
2023-04-02T01:08:51.821Z,85.01
2023-04-02T01:19:19.724Z,83.97
2023-04-02T01:29:58.510Z,82.62
2023-04-02T01:40:34.720Z,81.71
2023-04-02T01:50:39.000Z,81.62
2023-04-02T02:00:48.233Z,82.60
2023-04-02T02:10:57.276Z,81.54
2023-04-02T02:21:01.524Z,79.32
2023-04-02T02:31:17.718Z,79.02
2023-04-02T02:41:36.183Z,80.41
2023-04-02T02:51:44.589Z,81.62
2023-04-02T03:01:47.805Z,82.12
2023-04-02T03:12:25.162Z,82.84
2023-04-02T03:22:37.643Z,83.45
2023-04-02T03:32:43.993Z,84.02
2023-04-02T03:42:51.042Z,88.16
2023-04-02T03:52:53.373Z,89.51
2023-04-02T04:03:00.283Z,89.04
2023-04-02T04:13:12.540Z,87.66
2023-04-02T04:23:30.364Z,87.38
2023-04-02T04:33:42.277Z,86.24
2023-04-02T04:44:00.122Z,84.75
2023-04-02T04:54:05.628Z,84.87
2023-04-02T05:04:33.476Z,84.82
2023-04-02T05:14:48.607Z,87.10
2023-04-02T05:24:57.725Z,85.93
2023-04-02T05:35:06.856Z,87.98
2023-04-02T05:45:31.690Z,86.34
2023-04-02T05:55:56.106Z,85.88
2023-04-02T06:06:30.915Z,86.21
2023-04-02T06:16:41.644Z,87.31
2023-04-02T06:26:49.984Z,85.68
2023-04-02T06:36:57.972Z,84.18
2023-04-02T06:47:08.477Z,82.63
2023-04-02T06:57:14.004Z,80.36
2023-04-02T07:07:15.977Z,81.53
2023-04-02T07:17:21.303Z,84.14
2023-04-02T07:27:25.343Z,87.05
2023-04-02T07:37:27.446Z,92.09
2023-04-02T07:47:29.874Z,94.13
2023-04-02T07:57:44.244Z,95.95
2023-04-02T08:07:55.735Z,94.42
2023-04-02T08:18:04.659Z,92.46
2023-04-02T08:28:09.081Z,87.01
2023-04-02T08:38:15.919Z,86.68
2023-04-02T08:48:24.582Z,85.40
2023-04-02T08:58:47.624Z,85.95
2023-04-02T09:08:53.703Z,86.48
2023-04-02T09:19:01.405Z,83.53
2023-04-02T09:29:12.501Z,83.87
2023-04-02T09:39:21.512Z,84.18
2023-04-02T09:49:27.314Z,85.33
2023-04-02T09:59:29.947Z,85.56
2023-04-02T10:09:37.099Z,84.45
2023-04-02T10:19:52.221Z,82.65
2023-04-02T10:30:23.144Z,88.94
2023-04-02T10:40:28.049Z,89.66
2023-04-02T10:50:51.071Z,93.28
2023-04-02T11:01:08.338Z,93.43
2023-04-02T11:11:28.107Z,93.39
2023-04-02T11:21:58.025Z,93.10
2023-04-02T11:32:28.699Z,93.44
2023-04-02T11:42:36.614Z,94.04
2023-04-02T11:53:02.587Z,95.64
2023-04-02T12:03:45.124Z,96.46
2023-04-02T12:14:29.744Z,97.46
2023-04-02T12:24:32.412Z,94.90
2023-04-02T12:34:46.790Z,93.83
2023-04-02T12:44:54.781Z,95.58
2023-04-02T12:55:07.547Z,96.78
2023-04-02T13:05:09.840Z,96.23
2023-04-02T13:15:29.100Z,94.91
2023-04-02T13:25:37.335Z,92.73
2023-04-02T13:35:40.895Z,92.23
2023-04-02T13:45:56.666Z,89.40
2023-04-02T13:56:00.056Z,89.73
2023-04-02T14:06:24.753Z,87.98
2023-04-02T14:16:54.071Z,87.75
2023-04-02T14:27:04.749Z,86.87
2023-04-02T14:37:23.086Z,88.17
2023-04-02T14:47:32.941Z,89.40
2023-04-02T14:57:49.583Z,88.25
2023-04-02T15:08:25.092Z,91.97
2023-04-02T15:18:28.307Z,91.25
2023-04-02T15:28:41.701Z,93.50
2023-04-02T15:38:56.930Z,92.52
2023-04-02T15:49:30.636Z,92.00
2023-04-02T15:59:58.583Z,91.54
2023-04-02T16:10:41.821Z,91.39
2023-04-02T16:20:49.392Z,92.17
2023-04-02T16:31:33.257Z,92.83
2023-04-02T16:42:01.500Z,95.24
2023-04-02T16:52:10.508Z,94.75
2023-04-02T17:02:30.037Z,93.25
2023-04-02T17:13:01.626Z,96.40
2023-04-02T17:23:05.915Z,97.48
2023-04-02T17:33:14.341Z,96.25
2023-04-02T17:44:01.678Z,96.59
2023-04-02T17:54:20.378Z,98.44
2023-04-02T18:04:31.278Z,96.24
2023-04-02T18:14:49.672Z,91.51
2023-04-02T18:24:59.264Z,92.40
2023-04-02T18:35:35.107Z,92.58
2023-04-02T18:45:41.730Z,95.69
2023-04-02T18:56:06.914Z,95.73
2023-04-02T19:06:20.706Z,95.29
2023-04-02T19:16:57.009Z,96.21
2023-04-02T19:27:21.308Z,95.98
2023-04-02T19:37:29.396Z,98.36
2023-04-02T19:47:31.957Z,95.86
2023-04-02T19:57:38.277Z,92.41
2023-04-02T20:07:41.232Z,90.22
2023-04-02T20:17:47.578Z,87.54
2023-04-02T20:27:50.151Z,85.13
2023-04-02T20:37:52.665Z,84.28
2023-04-02T20:47:55.114Z,81.16
2023-04-02T20:57:57.277Z,77.62
2023-04-02T21:08:24.467Z,74.27
2023-04-02T21:18:27.075Z,71.44
2023-04-02T21:28:29.454Z,70.33
2023-04-02T21:38:32.409Z,69.02
2023-04-02T21:48:42.295Z,67.40
2023-04-02T21:58:46.328Z,64.95
2023-04-02T22:08:53.622Z,62.77
2023-04-02T22:18:59.236Z,62.50
2023-04-02T22:29:03.332Z,60.96
2023-04-02T22:39:13.137Z,61.28
2023-04-02T22:49:19.713Z,59.30
2023-04-02T22:59:26.872Z,58.93
2023-04-02T23:09:37.654Z,59.23
2023-04-02T23:19:39.749Z,58.20
2023-04-02T23:29:41.653Z,57.21
2023-04-02T23:39:45.652Z,58.22
2023-04-02T23:49:48.160Z,56.89
2023-04-02T23:59:53.206Z,59.89
